Alberton, MT

4:27 AM MST on February 25, 2017 (GMT -0700)
Downtown Alberton | | Change Station

Elev 3048 ft 47.00 °N, 114.48 °W | Updated 11 minutes ago

Partly Cloudy
Partly Cloudy
22.1 °F
Feels Like 22 °F
N
0.0
Wind Variable Wind from WNW
Gusts 0.0 mph

Today
High -- | Low -- °F
--% Chance of Precip.
Yesterday
High -- | Low -- °F
Precip. -- in
Pressure 30.18 in
Visibility 10.0 miles
Clouds Overcast 8000 ft
Windchill 22 °F
Dew Point 17 °F
Humidity 82%
Rainfall 0.00 in
Snow Depth Not available.
7:24 AM 6:18 PM
Waning Crescent, 2% visible
METAR KMSO 251053Z AUTO 00000KT 10SM OVC080 M06/M09 A3007 RMK AO2 SLP220 T10611089
Pressure 30.18 in
Visibility 10.0 miles
Clouds Overcast 8000 ft
Windchill 22 °F
Dew Point 17 °F
Humidity 82%
Rainfall 0.00 in
Snow Depth Not available.
7:24 AM 6:18 PM
Waning Crescent, 2% visible
METAR KMSO 251053Z AUTO 00000KT 10SM OVC080 M06/M09 A3007 RMK AO2 SLP220 T10611089

Get Your Daily Forecast Email!

Thanks for signing up!

Be on the lookout for a verification email in your inbox.

You'll start receiving the daily forecast at 8 AM.

×

10-Day Weather Forecast

Almanac

Astronomy

Feb. 25, 2017 Rise Set
Actual Time
Civil Twilight
Nautical Twilight
Astronomical Twilight
Moon
Length of Visible Light
Length of Day
Tomorrow will be .
, % of the Moon is Illuminated

Today's Extremes

State Highs State Lows

Community

WunderPhotos

Upload Photos

1,962,540 photos uploaded!

WunderBlog® & News

Nearby

Air Quality

  Air Quality AQ Index Pollutant
Not available.

Snow Depth

Station Depth Elevation

Earthquake Activity

City Distance Mag. Time & Date
Minimum magnitude displayed is 2.5.

Coastal Water Temperatures

Place Temperature

Stations

Nearby Weather Stations

Station Location Temp. Windchill Dew Point Humidity Wind Precip. Elev Updated Type
                   

Watches & Warnings

There are currently no watches in effect.